Time;durP1;ratioP1;P1;durP2;ratioP2;P2;SDS_P1;SDS_P2;PMS_P1;PMS_P2;Temp;Humidity;BMP_temperature;BMP_pressure;BME280_temperature;BME280_humidity;BME280_pressure;Samples;Min_cycle;Max_cycle;Signal;HPM_P1;HPM_P2
2023/02/24 00:01:58;;;;;;;1999.90;999.90;;;10.10;99.90;;;;;;5044313;28;20492;-67
2023/02/24 00:04:26;;;;;;;1999.90;999.90;;;10.10;99.90;;;;;;5024511;28;20503;-67
2023/02/24 00:06:53;;;;;;;1999.90;999.90;;;10.10;99.90;;;;;;5028613;28;20806;-67
2023/02/24 00:09:22;;;;;;;1999.90;999.90;;;10.20;99.90;;;;;;5029333;28;20580;-67
2023/02/24 00:11:55;;;;;;;1999.90;999.90;;;10.20;99.90;;;;;;5029177;28;20449;-67
2023/02/24 00:14:24;;;;;;;1999.90;999.90;;;10.10;99.90;;;;;;5033024;28;20449;-67
2023/02/24 00:16:53;;;;;;;1999.90;999.90;;;10.00;99.90;;;;;;5029649;28;20457;-67
2023/02/24 00:19:22;;;;;;;1999.90;999.90;;;9.90;99.90;;;;;;5029165;28;20453;-66
2023/02/24 00:21:50;;;;;;;1999.90;999.90;;;9.80;99.90;;;;;;5045139;28;20460;-67
2023/02/24 00:24:17;;;;;;;1999.90;999.90;;;9.90;99.90;;;;;;5028071;28;20451;-66
2023/02/24 00:26:46;;;;;;;1999.90;999.90;;;9.80;99.90;;;;;;5028589;28;20449;-67
2023/02/24 00:29:13;;;;;;;1999.90;999.90;;;9.90;99.90;;;;;;5029656;28;20579;-67
2023/02/24 00:31:41;;;;;;;1999.90;999.90;;;9.80;99.90;;;;;;5028038;28;20437;-67
2023/02/24 00:34:12;;;;;;;1999.90;999.90;;;9.90;99.90;;;;;;5025837;28;20457;-66
2023/02/24 00:36:40;;;;;;;1999.90;999.90;;;9.90;99.90;;;;;;5028273;28;20503;-67
2023/02/24 00:39:09;;;;;;;1999.90;999.90;;;10.00;99.90;;;;;;5028253;28;20529;-67
2023/02/24 00:41:39;;;;;;;1999.90;999.90;;;10.00;99.90;;;;;;5028285;28;20484;-66
2023/02/24 00:44:08;;;;;;;1999.90;999.90;;;10.00;99.90;;;;;;5020676;28;21181;-67
2023/02/24 00:46:36;;;;;;;1999.90;999.90;;;10.10;99.90;;;;;;5036663;28;20486;-66
2023/02/24 00:49:06;;;;;;;1999.90;999.90;;;10.00;99.90;;;;;;5028699;28;21005;-67
2023/02/24 00:51:38;;;;;;;1999.90;999.90;;;10.10;99.90;;;;;;5028238;28;20533;-66
2023/02/24 00:54:05;;;;;;;1999.90;999.90;;;10.10;99.90;;;;;;5027533;28;20812;-65
2023/02/24 00:56:32;;;;;;;1999.90;999.90;;;10.10;99.90;;;;;;5028061;28;20874;-67
2023/02/24 00:59:00;;;;;;;1999.90;999.90;;;10.10;99.90;;;;;;5028857;28;20472;-66
2023/02/24 01:01:31;;;;;;;1999.90;999.90;;;10.00;99.90;;;;;;5028145;28;20445;-66
2023/02/24 01:03:58;;;;;;;1999.90;999.90;;;10.00;99.90;;;;;;5034866;28;20525;-66
2023/02/24 01:06:28;;;;;;;1999.90;999.90;;;10.00;99.90;;;;;;5027198;28;20452;-67
2023/02/24 01:08:57;;;;;;;1999.90;999.90;;;10.10;99.90;;;;;;5027595;28;20449;-67
2023/02/24 01:14:20;;;;;;;1999.90;999.90;;;9.90;99.90;;;;;;5026792;28;20436;-66
2023/02/24 01:16:49;;;;;;;1999.90;999.90;;;9.90;99.90;;;;;;5027541;28;20445;-67
2023/02/24 01:19:16;;;;;;;1999.90;999.90;;;9.90;99.90;;;;;;5028105;28;20531;-67
2023/02/24 01:21:44;;;;;;;1999.90;999.90;;;9.90;99.90;;;;;;5044956;28;20443;-67
2023/02/24 01:24:14;;;;;;;1999.90;999.90;;;9.80;99.90;;;;;;5046792;28;20854;-65
2023/02/24 01:26:41;;;;;;;1999.90;999.90;;;9.80;99.90;;;;;;5047189;28;20450;-65
2023/02/24 01:29:09;;;;;;;1999.90;999.90;;;9.60;99.90;;;;;;5047798;28;20491;-66
2023/02/24 01:31:37;;;;;;;1999.90;999.90;;;9.50;99.90;;;;;;5046735;28;20482;-66
2023/02/24 01:34:04;;;;;;;1999.90;999.90;;;9.40;99.90;;;;;;5032428;28;20453;-65
2023/02/24 01:36:32;;;;;;;1999.90;999.90;;;9.40;99.90;;;;;;5028130;28;20975;-66
2023/02/24 01:39:00;;;;;;;1999.90;999.90;;;9.30;99.90;;;;;;5027547;28;20452;-66
2023/02/24 01:41:29;;;;;;;1999.90;999.90;;;9.30;99.90;;;;;;5027232;28;20445;-66
2023/02/24 01:44:00;;;;;;;1999.90;999.90;;;9.20;99.90;;;;;;5026143;28;21010;-65
2023/02/24 01:46:29;;;;;;;1999.90;999.90;;;9.20;99.90;;;;;;5027279;28;20475;-66
2023/02/24 01:49:01;;;;;;;1999.90;999.90;;;9.20;99.90;;;;;;5027117;28;21100;-66
2023/02/24 01:51:32;;;;;;;1999.90;999.90;;;9.30;99.90;;;;;;5027104;28;20441;-66
2023/02/24 01:54:00;;;;;;;1999.90;999.90;;;9.30;99.90;;;;;;5025681;28;20468;-65
2023/02/24 01:56:31;;;;;;;1999.90;999.90;;;9.30;99.90;;;;;;5026984;28;20452;-66
2023/02/24 01:59:00;;;;;;;1999.90;999.90;;;9.30;99.90;;;;;;5039770;28;20452;-66
2023/02/24 02:01:27;;;;;;;1999.90;999.90;;;9.20;99.90;;;;;;5047872;28;20440;-66
2023/02/24 02:04:00;;;;;;;1999.90;999.90;;;9.20;99.90;;;;;;5034620;28;20480;-66
2023/02/24 02:06:28;;;;;;;1999.90;999.90;;;9.20;99.90;;;;;;5027652;28;20451;-66
2023/02/24 02:08:55;;;;;;;1999.90;999.90;;;9.20;99.90;;;;;;5028278;28;20460;-66
2023/02/24 02:11:22;;;;;;;1999.90;999.90;;;9.20;99.90;;;;;;5046343;28;20447;-66
2023/02/24 02:13:52;;;;;;;1999.90;999.90;;;9.30;99.90;;;;;;5047011;28;20513;-66
2023/02/24 02:16:48;;;;;;;1999.90;999.90;;;9.30;99.90;;;;;;5044920;28;20527;-67
2023/02/24 02:19:43;;;;;;;1999.90;999.90;;;9.40;99.90;;;;;;5036912;28;20461;-67
2023/02/24 02:22:35;;;;;;;1999.90;999.90;;;9.30;99.90;;;;;;5036427;28;20526;-66
2023/02/24 02:25:12;;;;;;;1999.90;999.90;;;9.40;99.90;;;;;;5045684;28;20449;-67
2023/02/24 02:27:59;;;;;;;1999.90;999.90;;;9.40;99.90;;;;;;5033588;28;20444;-66
2023/02/24 02:31:02;;;;;;;1999.90;999.90;;;9.40;99.90;;;;;;5041526;28;21009;-66
2023/02/24 02:34:04;;;;;;;1999.90;999.90;;;9.30;99.90;;;;;;5043555;28;20462;-68
2023/02/24 02:36:41;;;;;;;1999.90;999.90;;;9.20;99.90;;;;;;5031244;28;20461;-68
2023/02/24 02:39:14;;;;;;;1999.90;999.90;;;9.20;99.90;;;;;;5047951;28;21037;-66
2023/02/24 02:41:50;;;;;;;1999.90;999.90;;;9.30;99.90;;;;;;5033224;28;20452;-67
2023/02/24 02:44:25;;;;;;;1999.90;999.90;;;9.30;99.90;;;;;;5035963;28;20441;-66
2023/02/24 02:46:58;;;;;;;1999.90;999.90;;;9.30;99.90;;;;;;5032394;28;20459;-67
2023/02/24 02:49:32;;;;;;;1999.90;999.90;;;9.30;99.90;;;;;;5041129;28;20455;-66
2023/02/24 02:52:06;;;;;;;1999.90;999.90;;;9.40;99.90;;;;;;5045681;28;20934;-67
2023/02/24 02:54:44;;;;;;;1999.90;999.90;;;9.40;99.90;;;;;;5041105;28;20457;-67
2023/02/24 02:57:16;;;;;;;1999.90;999.90;;;9.40;99.90;;;;;;5043727;28;20502;-66
2023/02/24 02:59:48;;;;;;;1999.90;999.90;;;9.40;99.90;;;;;;5038061;28;20440;-67
2023/02/24 03:02:17;;;;;;;1999.90;999.90;;;9.30;99.90;;;;;;5050239;28;20509;-67
2023/02/24 03:04:50;;;;;;;1999.90;999.90;;;9.20;99.90;;;;;;5044575;28;20445;-67
2023/02/24 03:07:21;;;;;;;1999.90;999.90;;;9.20;99.90;;;;;;5047447;28;20539;-66
2023/02/24 03:09:54;;;;;;;1999.90;999.90;;;9.20;99.90;;;;;;5035349;28;20480;-68
2023/02/24 03:12:23;;;;;;;1999.90;999.90;;;9.20;99.90;;;;;;5036525;28;20994;-68
2023/02/24 03:14:56;;;;;;;1999.90;999.90;;;9.10;99.90;;;;;;5040152;28;20957;-68
2023/02/24 03:17:25;;;;;;;1999.90;999.90;;;9.10;99.90;;;;;;5042531;28;20455;-67
2023/02/24 03:20:00;;;;;;;1999.90;999.90;;;9.20;99.90;;;;;;5042137;28;20459;-67
2023/02/24 03:22:36;;;;;;;1999.90;999.90;;;9.20;99.90;;;;;;5041194;28;20472;-66
2023/02/24 03:25:05;;;;;;;1999.90;999.90;;;9.20;99.90;;;;;;5038886;28;20869;-66
2023/02/24 03:27:36;;;;;;;1999.90;999.90;;;9.10;99.90;;;;;;5031996;28;20535;-66
2023/02/24 03:30:08;;;;;;;1999.90;999.90;;;9.10;99.90;;;;;;5038009;28;20496;-66
2023/02/24 03:32:49;;;;;;;1999.90;999.90;;;9.10;99.90;;;;;;5031269;28;20465;-66
2023/02/24 03:35:20;;;;;;;1999.90;999.90;;;9.10;99.90;;;;;;5031833;28;20472;-65
2023/02/24 03:37:49;;;;;;;1999.90;999.90;;;9.10;99.90;;;;;;5031045;28;20456;-66
2023/02/24 03:40:19;;;;;;;1999.90;999.90;;;9.10;99.90;;;;;;5031755;28;20830;-65
2023/02/24 03:42:49;;;;;;;1999.90;999.90;;;9.00;99.90;;;;;;5037071;28;20465;-66
2023/02/24 03:45:21;;;;;;;1999.90;999.90;;;9.00;99.90;;;;;;5036994;28;20460;-66
2023/02/24 03:47:49;;;;;;;1999.90;999.90;;;9.10;99.90;;;;;;5041330;28;20520;-66
2023/02/24 03:50:18;;;;;;;1999.90;999.90;;;9.10;99.90;;;;;;5033930;28;20483;-67
2023/02/24 03:52:53;;;;;;;1999.90;999.90;;;9.00;99.90;;;;;;5030753;28;20476;-66
2023/02/24 03:55:33;;;;;;;1999.90;999.90;;;8.90;99.90;;;;;;5049387;28;20458;-66
2023/02/24 03:58:11;;;;;;;1999.90;999.90;;;8.90;99.90;;;;;;5035405;28;20978;-67
2023/02/24 04:00:46;;;;;;;1999.90;999.90;;;8.90;99.90;;;;;;5037160;28;20487;-66
2023/02/24 04:03:25;;;;;;;1999.90;999.90;;;9.00;99.90;;;;;;5032444;28;21020;-66
2023/02/24 04:06:03;;;;;;;1999.90;999.90;;;9.00;99.90;;;;;;5038279;28;20459;-67
2023/02/24 04:08:37;;;;;;;1999.90;999.90;;;9.00;99.90;;;;;;5042161;28;20507;-67
2023/02/24 04:11:14;;;;;;;1999.90;999.90;;;9.00;99.90;;;;;;5036703;28;20475;-67
2023/02/24 04:13:46;;;;;;;1999.90;999.90;;;9.00;99.90;;;;;;5050182;28;20476;-66
2023/02/24 04:16:27;;;;;;;1999.90;999.90;;;9.00;99.90;;;;;;5051275;28;20452;-66
2023/02/24 04:18:58;;;;;;;1999.90;999.90;;;9.00;99.90;;;;;;5035158;28;20448;-66
2023/02/24 04:21:29;;;;;;;1999.90;999.90;;;9.10;99.90;;;;;;5043293;28;20532;-66
2023/02/24 04:23:59;;;;;;;1999.90;999.90;;;9.10;99.90;;;;;;5037231;28;20472;-67
2023/02/24 04:26:27;;;;;;;1999.90;999.90;;;9.10;99.90;;;;;;5038783;28;20460;-66
2023/02/24 04:28:55;;;;;;;1999.90;999.90;;;9.20;99.90;;;;;;5039847;28;20492;-67
2023/02/24 04:31:24;;;;;;;1999.90;999.90;;;9.20;99.90;;;;;;5042370;28;20485;-67
2023/02/24 04:33:52;;;;;;;1999.90;999.90;;;9.10;99.90;;;;;;5035651;28;20467;-67
2023/02/24 04:36:20;;;;;;;1999.90;999.90;;;9.00;99.90;;;;;;5031742;28;20831;-66
2023/02/24 04:38:47;;;;;;;1999.90;999.90;;;9.00;99.90;;;;;;5044661;28;20456;-66
2023/02/24 04:41:19;;;;;;;1999.90;999.90;;;9.00;99.90;;;;;;5037896;28;20448;-66
2023/02/24 04:43:47;;;;;;;1999.90;999.90;;;9.00;99.90;;;;;;5047385;28;20479;-67
2023/02/24 04:46:14;;;;;;;1999.90;999.90;;;9.00;99.90;;;;;;5040436;28;20458;-67
2023/02/24 04:48:41;;;;;;;1999.90;999.90;;;8.90;99.90;;;;;;5030870;28;20436;-66
2023/02/24 04:51:07;;;;;;;1999.90;999.90;;;8.90;99.90;;;;;;5030678;28;20481;-66
2023/02/24 04:53:36;;;;;;;1999.90;999.90;;;8.90;99.90;;;;;;5028806;28;20932;-67
2023/02/24 04:56:07;;;;;;;1999.90;999.90;;;8.90;99.90;;;;;;5030741;28;20562;-66
2023/02/24 04:58:37;;;;;;;1999.90;999.90;;;8.80;99.90;;;;;;5030901;28;20452;-66
2023/02/24 05:01:09;;;;;;;1999.90;999.90;;;8.80;99.90;;;;;;5030807;28;20441;-66
2023/02/24 05:03:40;;;;;;;1999.90;999.90;;;8.80;99.90;;;;;;5029720;28;21159;-66
2023/02/24 05:06:12;;;;;;;1999.90;999.90;;;8.80;99.90;;;;;;5030576;28;20456;-67
2023/02/24 05:08:40;;;;;;;1999.90;999.90;;;8.80;99.90;;;;;;5039919;28;20485;-69
2023/02/24 05:11:07;;;;;;;1999.90;999.90;;;8.80;99.90;;;;;;5050149;28;20484;-66
2023/02/24 05:13:36;;;;;;;1999.90;999.90;;;8.80;99.90;;;;;;5049240;28;20945;-66
2023/02/24 05:16:06;;;;;;;1999.90;999.90;;;8.70;99.90;;;;;;5050496;28;20443;-67
2023/02/24 05:18:35;;;;;;;1999.90;999.90;;;8.80;99.90;;;;;;5050807;28;20482;-66
2023/02/24 05:23:52;;;;;;;1999.90;999.90;;;8.70;99.90;;;;;;5049424;28;20475;-67
2023/02/24 05:26:22;;;;;;;1999.90;999.90;;;8.80;99.90;;;;;;5050249;28;20443;-66
2023/02/24 05:28:52;;;;;;;1999.90;999.90;;;8.80;99.90;;;;;;5050042;28;20458;-67
2023/02/24 05:31:22;;;;;;;1999.90;999.90;;;8.80;99.90;;;;;;5049716;28;20482;-66
2023/02/24 05:33:54;;;;;;;1999.90;999.90;;;8.80;99.90;;;;;;5049107;28;20529;-66
2023/02/24 05:36:22;;;;;;;1999.90;999.90;;;8.90;99.90;;;;;;5050071;28;20594;-67
2023/02/24 05:38:54;;;;;;;1999.90;999.90;;;8.90;99.90;;;;;;5049850;28;20444;-66
2023/02/24 05:41:22;;;;;;;1999.90;999.90;;;8.80;99.90;;;;;;5049998;28;20448;-67
2023/02/24 05:43:53;;;;;;;1999.90;999.90;;;8.80;99.90;;;;;;5048529;28;20472;-67
2023/02/24 05:46:26;;;;;;;1999.90;999.90;;;8.80;99.90;;;;;;5050181;28;20743;-67
2023/02/24 05:48:55;;;;;;;1999.90;999.90;;;8.80;99.90;;;;;;5049677;28;20454;-67
2023/02/24 05:51:23;;;;;;;1999.90;999.90;;;8.70;99.90;;;;;;5049608;28;20483;-67
2023/02/24 05:53:54;;;;;;;1999.90;999.90;;;8.70;99.90;;;;;;5048536;28;20460;-67
2023/02/24 05:56:21;;;;;;;1999.90;999.90;;;8.70;99.90;;;;;;5049914;28;20440;-67
2023/02/24 05:59:00;;;;;;;1999.90;999.90;;;8.70;99.90;;;;;;5049911;28;20444;-65
2023/02/24 06:01:29;;;;;;;1999.90;999.90;;;8.70;99.90;;;;;;5049827;28;20459;-67
2023/02/24 06:03:56;;;;;;;1999.90;999.90;;;8.70;99.90;;;;;;5047774;28;20494;-66
2023/02/24 06:06:23;;;;;;;1999.90;999.90;;;8.60;99.90;;;;;;5049601;28;20448;-66
2023/02/24 06:08:50;;;;;;;1999.90;999.90;;;8.60;99.90;;;;;;5049945;28;20942;-67
2023/02/24 06:11:19;;;;;;;1999.90;999.90;;;8.60;99.90;;;;;;5033203;28;20989;-67
2023/02/24 06:13:47;;;;;;;1999.90;999.90;;;8.60;99.90;;;;;;5028854;28;20480;-67
2023/02/24 06:16:16;;;;;;;1999.90;999.90;;;8.60;99.90;;;;;;5029624;28;20445;-67
2023/02/24 06:18:44;;;;;;;1999.90;999.90;;;8.60;99.90;;;;;;5029781;28;20448;-67
2023/02/24 06:21:12;;;;;;;1999.90;999.90;;;8.60;99.90;;;;;;5029768;28;20445;-67
2023/02/24 06:23:39;;;;;;;1999.90;999.90;;;8.60;99.90;;;;;;5029261;28;20598;-67
2023/02/24 06:26:11;;;;;;;1999.90;999.90;;;8.60;99.90;;;;;;5029833;28;20464;-67
2023/02/24 06:28:39;;;;;;;1999.90;999.90;;;8.60;99.90;;;;;;5029451;28;20448;-68
2023/02/24 06:31:07;;;;;;;1999.90;999.90;;;8.60;99.90;;;;;;5029159;28;20484;-67
2023/02/24 06:33:35;;;;;;;1999.90;999.90;;;8.60;99.90;;;;;;5027969;28;20836;-67
2023/02/24 06:36:04;;;;;;;1999.90;999.90;;;8.60;99.90;;;;;;5029777;28;20441;-68
2023/02/24 06:38:31;;;;;;;1999.90;999.90;;;8.50;99.90;;;;;;5029318;28;20456;-67
2023/02/24 06:40:58;;;;;;;1999.90;999.90;;;8.50;99.90;;;;;;5029689;28;20441;-68
2023/02/24 06:43:25;;;;;;;1999.90;999.90;;;8.60;99.90;;;;;;5027850;28;20475;-67
2023/02/24 06:45:51;;;;;;;1999.90;999.90;;;8.50;99.90;;;;;;5029660;28;20524;-68
2023/02/24 06:48:18;;;;;;;1999.90;999.90;;;8.50;99.90;;;;;;5029197;28;20465;-66
2023/02/24 06:50:47;;;;;;;1999.90;999.90;;;8.50;99.90;;;;;;5029424;28;20488;-67
2023/02/24 06:53:17;;;;;;;1999.90;999.90;;;8.60;99.90;;;;;;5028227;28;20559;-68
2023/02/24 06:55:45;;;;;;;1999.90;999.90;;;8.60;99.90;;;;;;5029114;28;20476;-68
2023/02/24 06:58:16;;;;;;;1999.90;999.90;;;8.60;99.90;;;;;;5029268;28;20502;-67
2023/02/24 07:00:55;;;;;;;1999.90;999.90;;;8.60;99.90;;;;;;5029131;28;20451;-67
2023/02/24 07:03:23;;;;;;;1999.90;999.90;;;8.70;99.90;;;;;;5028312;28;20468;-68
2023/02/24 07:06:09;;;;;;;1999.90;999.90;;;8.70;99.90;;;;;;5029228;28;20445;-68
2023/02/24 07:08:37;;;;;;;1999.90;999.90;;;8.70;99.90;;;;;;5029488;28;20539;-68
2023/02/24 07:11:06;;;;;;;1999.90;999.90;;;8.60;99.90;;;;;;5029008;28;20476;-66
2023/02/24 07:13:33;;;;;;;1999.90;999.90;;;8.60;99.90;;;;;;5028029;28;20469;-66
2023/02/24 07:16:05;;;;;;;1999.90;999.90;;;8.70;99.90;;;;;;5031412;28;20488;-66
2023/02/24 07:18:34;;;;;;;1999.90;999.90;;;8.70;99.90;;;;;;5032675;28;20535;-67
2023/02/24 07:21:10;;;;;;;1999.90;999.90;;;8.70;99.90;;;;;;5033121;28;20461;-66
2023/02/24 07:23:38;;;;;;;1999.90;999.90;;;8.80;99.90;;;;;;5034905;28;20563;-67
2023/02/24 07:26:09;;;;;;;1999.90;999.90;;;8.80;99.90;;;;;;5039090;28;20453;-68
2023/02/24 07:28:38;;;;;;;1999.90;999.90;;;8.80;99.90;;;;;;5038949;28;20441;-67
2023/02/24 07:31:07;;;;;;;1999.90;999.90;;;8.80;99.90;;;;;;5036705;28;20491;-68
2023/02/24 07:33:35;;;;;;;1999.90;999.90;;;8.80;99.90;;;;;;5036151;28;20475;-67
2023/02/24 07:36:07;;;;;;;1999.90;999.90;;;8.80;99.90;;;;;;5034873;28;20528;-67
2023/02/24 07:38:36;;;;;;;1999.90;999.90;;;8.80;99.90;;;;;;5033978;28;20492;-67
2023/02/24 07:41:05;;;;;;;1999.90;999.90;;;8.80;99.90;;;;;;5034009;28;20437;-66
2023/02/24 07:43:33;;;;;;;1999.90;999.90;;;8.80;99.90;;;;;;5031318;28;20563;-67
2023/02/24 07:46:11;;;;;;;1999.90;999.90;;;8.70;99.90;;;;;;5033088;28;20451;-69
2023/02/24 07:48:40;;;;;;;1999.90;999.90;;;8.80;99.90;;;;;;5033279;28;20977;-70
2023/02/24 07:51:07;;;;;;;1999.90;999.90;;;8.80;99.90;;;;;;5032472;28;20538;-66
2023/02/24 07:53:35;;;;;;;1999.90;999.90;;;8.80;99.90;;;;;;5031028;28;20967;-68
2023/02/24 07:56:09;;;;;;;1999.90;999.90;;;8.80;99.90;;;;;;5032415;28;20456;-67
2023/02/24 07:58:36;;;;;;;1999.90;999.90;;;8.80;99.90;;;;;;5031894;28;20456;-67
2023/02/24 08:01:07;;;;;;;1999.90;999.90;;;8.80;99.90;;;;;;5012232;28;20450;-66
2023/02/24 08:03:36;;;;;;;1999.90;999.90;;;8.90;99.90;;;;;;5011348;28;20484;-67
2023/02/24 08:06:14;;;;;;;1999.90;999.90;;;9.00;99.90;;;;;;5012287;28;20461;-67
2023/02/24 08:08:57;;;;;;;1999.90;999.90;;;9.10;99.90;;;;;;5012462;28;20461;-66
2023/02/24 08:11:25;;;;;;;1999.90;999.90;;;9.10;99.90;;;;;;5011882;28;20481;-67
2023/02/24 08:13:54;;;;;;;1999.90;999.90;;;9.20;99.90;;;;;;5010984;28;20957;-67
2023/02/24 08:16:22;;;;;;;1999.90;999.90;;;9.20;99.90;;;;;;5012350;28;20485;-66
2023/02/24 08:18:48;;;;;;;1999.90;999.90;;;9.20;99.90;;;;;;5012178;28;20454;-67
2023/02/24 08:21:18;;;;;;;1999.90;999.90;;;9.40;99.90;;;;;;5020999;28;20834;-66
2023/02/24 08:23:47;;;;;;;1999.90;999.90;;;9.40;99.90;;;;;;5022818;28;20552;-67
2023/02/24 08:26:14;;;;;;;1999.90;999.90;;;9.60;99.90;;;;;;5029743;28;20441;-67
2023/02/24 08:28:42;;;;;;;1999.90;999.90;;;9.70;99.90;;;;;;5030028;28;20831;-73
2023/02/24 08:31:11;;;;;;;1999.90;999.90;;;9.80;99.90;;;;;;5031116;28;20456;-67
2023/02/24 08:33:38;;;;;;;1999.90;999.90;;;9.70;99.90;;;;;;5029509;28;20469;-69
2023/02/24 08:36:05;;;;;;;1999.90;999.90;;;9.90;99.90;;;;;;5031293;28;20453;-69
2023/02/24 08:38:41;;;;;;;1999.90;999.90;;;10.00;99.90;;;;;;5030401;28;20493;-69
2023/02/24 08:41:16;;;;;;;1999.90;999.90;;;10.10;99.90;;;;;;5030994;28;20432;-65
2023/02/24 08:43:45;;;;;;;1999.90;999.90;;;10.10;99.90;;;;;;5030099;28;20587;-72
2023/02/24 08:46:18;;;;;;;1999.90;999.90;;;10.10;99.90;;;;;;5031046;28;20491;-68
2023/02/24 08:48:47;;;;;;;1999.90;999.90;;;10.20;99.90;;;;;;5030294;28;20455;-68
2023/02/24 08:51:16;;;;;;;1999.90;999.90;;;10.30;99.90;;;;;;5029941;28;20447;-67
2023/02/24 08:53:45;;;;;;;1999.90;999.90;;;10.40;99.90;;;;;;5029758;28;20461;-67
2023/02/24 08:56:22;;;;;;;1999.90;999.90;;;10.40;99.90;;;;;;5030323;28;20441;-68
2023/02/24 08:58:55;;;;;;;1999.90;999.90;;;10.50;99.90;;;;;;5030273;28;20552;-69
2023/02/24 09:01:25;;;;;;;1999.90;999.90;;;10.60;99.90;;;;;;5030156;28;20456;-68
2023/02/24 09:03:54;;;;;;;1999.90;999.90;;;10.70;99.90;;;;;;5028824;28;20476;-68
2023/02/24 09:06:26;;;;;;;1999.90;999.90;;;10.70;99.90;;;;;;5030843;28;20529;-68
2023/02/24 09:11:42;;;;;;;1999.90;999.90;;;10.90;99.90;;;;;;5027993;28;20508;-70
2023/02/24 09:14:15;;;;;;;1999.90;999.90;;;10.70;99.90;;;;;;5007253;28;20445;-70
2023/02/24 09:17:00;;;;;;;1999.90;999.90;;;10.50;99.90;;;;;;5009218;28;20480;-70
2023/02/24 09:20:14;;;;;;;1999.90;999.90;;;10.40;99.90;;;;;;5008794;28;20456;-67
2023/02/24 09:22:30;;;;;;;1999.90;999.90;;;10.30;99.90;;;;;;5007170;28;20551;-68
2023/02/24 09:27:41;;;;;;;1999.90;999.90;;;10.20;99.90;;;;;;5008249;28;20515;-70
2023/02/24 09:30:24;;;;;;;1999.90;999.90;;;10.20;99.90;;;;;;5036045;28;20440;-71
2023/02/24 09:32:59;;;;;;;1999.90;999.90;;;10.30;99.90;;;;;;5043319;28;20519;-67
2023/02/24 09:35:29;;;;;;;1999.90;999.90;;;10.40;99.90;;;;;;5046512;28;20566;-71
2023/02/24 09:37:59;;;;;;;1999.90;999.90;;;10.40;99.90;;;;;;5047684;28;20487;-67
2023/02/24 09:40:39;;;;;;;1999.90;999.90;;;10.50;99.90;;;;;;5047561;28;20483;-68
2023/02/24 09:43:16;;;;;;;1999.90;999.90;;;10.70;99.90;;;;;;5046262;28;20899;-68
2023/02/24 09:45:52;;;;;;;1999.90;999.90;;;10.80;99.90;;;;;;5050871;28;20469;-67
2023/02/24 09:48:24;;;;;;;1999.90;999.90;;;10.90;99.90;;;;;;5049755;28;20530;-68
2023/02/24 09:51:04;;;;;;;1999.90;999.90;;;11.00;99.90;;;;;;5047268;28;20543;-67
2023/02/24 09:53:38;;;;;;;1999.90;999.90;;;11.20;99.90;;;;;;5039001;28;20492;-69
2023/02/24 09:56:16;;;;;;;1999.90;999.90;;;11.20;99.90;;;;;;5027812;28;20942;-68
2023/02/24 09:58:51;;;;;;;1999.90;999.90;;;11.40;99.90;;;;;;5028113;28;21002;-69
2023/02/24 10:01:34;;;;;;;1999.90;999.90;;;11.60;99.90;;;;;;5027901;28;20459;-69
2023/02/24 10:04:10;;;;;;;1999.90;999.90;;;11.80;99.90;;;;;;5026112;28;20517;-70
2023/02/24 10:06:40;;;;;;;1999.90;999.90;;;11.90;99.90;;;;;;5028148;28;20447;-69
2023/02/24 10:09:23;;;;;;;1999.90;999.90;;;12.00;99.90;;;;;;5026638;28;20448;-66
2023/02/24 10:11:53;;;;;;;1999.90;999.90;;;12.00;99.90;;;;;;5027863;28;20601;-68
2023/02/24 10:14:27;;;;;;;1999.90;999.90;;;12.10;99.90;;;;;;5027361;28;21018;-68
2023/02/24 10:19:40;;;;;;;1999.90;999.90;;;11.70;99.90;;;;;;5026290;28;20424;-67
2023/02/24 10:22:26;;;;;;;1999.90;999.90;;;11.60;99.90;;;;;;5036769;28;20830;-67
2023/02/24 10:25:09;;;;;;;1999.90;999.90;;;11.50;99.90;;;;;;5029201;28;20449;-67
2023/02/24 10:27:42;;;;;;;1999.90;999.90;;;11.40;99.90;;;;;;5038557;28;20988;-68
2023/02/24 10:30:19;;;;;;;1999.90;999.90;;;11.10;99.90;;;;;;5039638;28;20480;-69
2023/02/24 10:32:51;;;;;;;1999.90;999.90;;;11.00;99.90;;;;;;5029451;28;20484;-67
2023/02/24 10:35:24;;;;;;;1999.90;999.90;;;10.90;99.90;;;;;;5034475;28;20463;-69
2023/02/24 10:37:51;;;;;;;1999.90;999.90;;;10.90;99.90;;;;;;5039937;28;20445;-68
2023/02/24 10:40:25;;;;;;;1999.90;999.90;;;10.90;99.90;;;;;;5034580;28;20444;-67
2023/02/24 10:43:09;;;;;;;1999.90;999.90;;;10.90;99.90;;;;;;5032819;28;20467;-67
2023/02/24 10:45:43;;;;;;;1999.90;999.90;;;10.80;99.90;;;;;;5042540;28;21009;-67
2023/02/24 10:48:23;;;;;;;1999.90;999.90;;;10.80;99.90;;;;;;5026832;28;20463;-69
2023/02/24 10:50:53;;;;;;;1999.90;999.90;;;10.80;99.90;;;;;;5027929;28;20459;-67
2023/02/24 10:53:33;;;;;;;1999.90;999.90;;;10.60;99.90;;;;;;5028755;28;20985;-67
2023/02/24 10:56:25;;;;;;;1999.90;999.90;;;10.40;99.90;;;;;;5030906;28;20463;-68
2023/02/24 10:59:19;;;;;;;1999.90;999.90;;;10.40;99.90;;;;;;5029221;28;20961;-70
2023/02/24 11:01:58;;;;;;;1999.90;999.90;;;10.20;99.90;;;;;;5030026;28;20464;-68
2023/02/24 11:04:43;;;;;;;1999.90;999.90;;;10.20;99.90;;;;;;5028508;28;20548;-68
2023/02/24 11:07:23;;;;;;;1999.90;999.90;;;10.30;99.90;;;;;;5030220;28;20873;-68
2023/02/24 11:10:09;;;;;;;1999.90;999.90;;;10.40;99.90;;;;;;5032028;28;20445;-67
2023/02/24 11:18:19;;;;;;;1999.90;999.90;;;10.50;99.90;;;;;;5029108;28;20506;-69
2023/02/24 11:20:51;;;;;;;1999.90;999.90;;;10.40;99.90;;;;;;5037920;28;20447;-68
2023/02/24 11:23:22;;;;;;;1999.90;999.90;;;10.20;99.90;;;;;;5035671;28;20996;-67
2023/02/24 11:25:52;;;;;;;1999.90;999.90;;;10.20;99.90;;;;;;5047495;28;20443;-67
2023/02/24 11:28:50;;;;;;;1999.90;999.90;;;10.20;99.90;;;;;;5033852;28;20833;-69
2023/02/24 11:31:31;;;;;;;1999.90;999.90;;;10.00;99.90;;;;;;5032771;28;20448;-68
2023/02/24 11:34:07;;;;;;;1999.90;999.90;;;10.00;99.90;;;;;;5037730;28;20484;-67
2023/02/24 11:36:42;;;;;;;1999.90;999.90;;;10.00;99.90;;;;;;5039081;28;20890;-68
2023/02/24 11:39:30;;;;;;;1999.90;999.90;;;10.00;99.90;;;;;;5038737;28;20452;-67
2023/02/24 11:42:00;;;;;;;1999.90;999.90;;;9.90;99.90;;;;;;5039821;28;20831;-68
2023/02/24 11:44:33;;;;;;;1999.90;999.90;;;9.90;99.90;;;;;;5030206;28;20918;-67
2023/02/24 11:47:06;;;;;;;1999.90;999.90;;;9.90;99.90;;;;;;5027448;28;20472;-68
2023/02/24 11:49:40;;;;;;;1999.90;999.90;;;9.90;99.90;;;;;;5030656;28;20963;-69
2023/02/24 11:52:13;;;;;;;1999.90;999.90;;;9.90;99.90;;;;;;5029698;28;20487;-69
2023/02/24 11:54:44;;;;;;;1999.90;999.90;;;10.00;99.90;;;;;;5030066;28;20460;-70
2023/02/24 11:57:16;;;;;;;1999.90;999.90;;;10.20;99.90;;;;;;5030167;28;20453;-67
2023/02/24 11:59:48;;;;;;;1999.90;999.90;;;10.40;99.90;;;;;;5030060;28;20441;-67
2023/02/24 12:02:23;;;;;;;1999.90;999.90;;;10.40;99.90;;;;;;5028991;28;20465;-68
2023/02/24 12:04:58;;;;;;;1999.90;999.90;;;10.50;99.90;;;;;;5030310;28;20825;-68
2023/02/24 12:07:30;;;;;;;1999.90;999.90;;;10.60;99.90;;;;;;5030232;28;20453;-68
2023/02/24 12:10:05;;;;;;;1999.90;999.90;;;10.70;99.90;;;;;;5028808;28;20445;-69
2023/02/24 12:12:39;;;;;;;1999.90;999.90;;;10.80;99.90;;;;;;5032516;28;20488;-68
2023/02/24 12:15:13;;;;;;;1999.90;999.90;;;10.90;99.90;;;;;;5017962;28;20456;-68
2023/02/24 12:17:54;;;;;;;1999.90;999.90;;;11.00;99.90;;;;;;5029427;28;20547;-68
2023/02/24 12:20:27;;;;;;;1999.90;999.90;;;11.10;99.90;;;;;;5029750;28;20476;-68
2023/02/24 12:22:57;;;;;;;1999.90;999.90;;;11.30;99.90;;;;;;5021108;28;20469;-69
2023/02/24 12:25:29;;;;;;;1999.90;999.90;;;11.60;99.90;;;;;;5029838;28;20441;-68
2023/02/24 12:28:09;;;;;;;1999.90;999.90;;;11.60;99.90;;;;;;5023504;28;20448;-69
2023/02/24 12:30:56;;;;;;;1999.90;999.90;;;11.60;99.90;;;;;;5023288;28;20452;-68
2023/02/24 12:33:38;;;;;;;1999.90;999.90;;;11.80;99.90;;;;;;5030555;28;20519;-70
2023/02/24 12:36:20;;;;;;;1999.90;999.90;;;11.90;99.90;;;;;;5034102;28;20486;-68
2023/02/24 12:38:55;;;;;;;1999.90;999.90;;;12.10;99.90;;;;;;5030882;28;20469;-71
2023/02/24 12:41:33;;;;;;;1999.90;999.90;;;12.00;99.90;;;;;;5030589;28;20709;-67
2023/02/24 12:44:08;;;;;;;1999.90;999.90;;;11.90;99.90;;;;;;5032784;28;20460;-69
2023/02/24 12:46:36;;;;;;;1999.90;999.90;;;12.00;99.90;;;;;;5030773;28;20441;-68
2023/02/24 12:49:22;;;;;;;1999.90;999.90;;;12.00;99.90;;;;;;5026354;28;20572;-66
2023/02/24 12:52:03;;;;;;;1999.90;999.90;;;11.90;99.90;;;;;;5027796;28;20447;-69